createdAt,value
2018-06-21T00:01:54.110Z,18.93
2018-06-21T00:04:23.891Z,18.98
2018-06-21T00:06:53.481Z,19.12
2018-06-21T00:09:23.438Z,19.16
2018-06-21T00:11:52.935Z,19.15
2018-06-21T00:14:22.744Z,19.29
2018-06-21T00:16:52.367Z,19.27
2018-06-21T00:19:22.061Z,19.36
2018-06-21T00:21:51.822Z,19.46
2018-06-21T00:24:21.702Z,19.36
2018-06-21T00:26:51.642Z,19.35
2018-06-21T00:29:21.883Z,19.24
2018-06-21T00:31:51.755Z,19.19
2018-06-21T00:34:22.393Z,19.12
2018-06-21T00:36:52.173Z,19.19
2018-06-21T00:39:21.882Z,19.21
2018-06-21T00:41:51.662Z,19.39
2018-06-21T00:44:21.365Z,19.35
2018-06-21T00:46:51.071Z,19.40
2018-06-21T00:49:20.778Z,19.32
2018-06-21T00:51:50.558Z,19.31
2018-06-21T00:54:20.698Z,19.37
2018-06-21T00:56:50.454Z,19.34
2018-06-21T00:59:20.209Z,19.31
2018-06-21T01:01:49.882Z,19.30
2018-06-21T01:04:19.747Z,19.16
2018-06-21T01:06:49.530Z,19.12
2018-06-21T01:09:19.681Z,19.02
2018-06-21T01:11:49.470Z,18.90
2018-06-21T01:14:19.194Z,18.89
2018-06-21T01:16:49.024Z,18.84
2018-06-21T01:19:19.195Z,18.81
2018-06-21T01:21:48.951Z,18.77
2018-06-21T01:24:18.642Z,18.67
2018-06-21T01:26:48.317Z,18.58
2018-06-21T01:29:18.419Z,18.56
2018-06-21T01:31:48.198Z,18.44
2018-06-21T01:34:17.882Z,18.38
2018-06-21T01:36:47.731Z,18.31
2018-06-21T01:39:17.238Z,18.39
2018-06-21T01:41:47.123Z,18.33
2018-06-21T01:44:17.046Z,18.25
2018-06-21T01:46:46.862Z,18.17
2018-06-21T01:49:16.506Z,18.06
2018-06-21T01:51:46.235Z,17.99
2018-06-21T01:54:16.256Z,17.89
2018-06-21T01:56:46.165Z,17.82
2018-06-21T01:59:16.026Z,17.83
2018-06-21T02:01:45.802Z,17.75
2018-06-21T02:04:16.302Z,17.64
2018-06-21T02:06:46.108Z,17.58
2018-06-21T02:09:15.837Z,17.53
2018-06-21T02:11:45.578Z,17.47
2018-06-21T02:14:15.502Z,17.48
2018-06-21T02:16:45.422Z,17.52
2018-06-21T02:19:15.079Z,17.51
2018-06-21T02:21:44.828Z,17.46
2018-06-21T02:24:14.506Z,17.50
2018-06-21T02:26:44.362Z,17.47
2018-06-21T02:29:14.186Z,17.37
2018-06-21T02:31:44.106Z,17.29
2018-06-21T02:34:13.949Z,17.25
2018-06-21T02:36:44.103Z,17.16
2018-06-21T02:39:13.864Z,17.21
2018-06-21T02:41:44.475Z,17.24
2018-06-21T02:44:14.216Z,17.23
2018-06-21T02:46:44.006Z,17.20
2018-06-21T02:49:13.644Z,17.20
2018-06-21T02:51:43.456Z,17.24
2018-06-21T02:54:12.895Z,17.24
2018-06-21T02:56:42.800Z,17.28
2018-06-21T02:59:13.146Z,17.28
2018-06-21T03:01:42.926Z,17.28
2018-06-21T03:04:12.611Z,17.37
2018-06-21T03:06:42.354Z,17.54
2018-06-21T03:09:12.037Z,17.70
2018-06-21T03:11:41.828Z,17.92
2018-06-21T03:14:11.710Z,18.20
2018-06-21T03:16:41.642Z,18.37
2018-06-21T03:19:11.234Z,18.55
2018-06-21T03:21:41.050Z,18.62
2018-06-21T03:24:10.822Z,18.80
2018-06-21T03:26:40.578Z,18.88
2018-06-21T03:29:10.320Z,19.00
2018-06-21T03:31:40.118Z,19.09
2018-06-21T03:34:10.345Z,19.22
2018-06-21T03:36:40.095Z,19.35
2018-06-21T03:39:09.870Z,19.43
2018-06-21T03:41:39.286Z,19.59
2018-06-21T03:44:08.708Z,19.65
2018-06-21T03:46:38.520Z,19.72
2018-06-21T03:49:08.397Z,19.78
2018-06-21T03:51:38.070Z,19.97
2018-06-21T03:54:07.818Z,20.12
2018-06-21T03:56:37.575Z,20.22
2018-06-21T03:59:07.458Z,20.30
2018-06-21T04:01:37.254Z,20.41
2018-06-21T04:04:07.124Z,20.43
2018-06-21T04:06:36.918Z,20.46
2018-06-21T04:09:09.466Z,20.54
2018-06-21T04:11:39.518Z,20.63
2018-06-21T04:14:08.966Z,20.72
2018-06-21T04:16:38.774Z,20.80
2018-06-21T04:19:08.166Z,20.84
2018-06-21T04:21:38.089Z,20.96
2018-06-21T04:24:07.804Z,21.02
2018-06-21T04:26:37.545Z,21.11
2018-06-21T04:29:07.327Z,21.18
2018-06-21T04:31:37.694Z,21.27
2018-06-21T04:34:07.483Z,21.43
2018-06-21T04:36:37.490Z,21.54
2018-06-21T04:39:08.422Z,21.68
2018-06-21T04:41:38.445Z,21.81
2018-06-21T04:44:08.376Z,21.86
2018-06-21T04:46:37.892Z,21.95
2018-06-21T04:49:07.642Z,22.18
2018-06-21T04:51:37.659Z,22.39
2018-06-21T04:54:07.550Z,22.46
2018-06-21T04:56:37.782Z,22.58
2018-06-21T04:59:07.469Z,22.74
2018-06-21T05:01:37.862Z,23.20
2018-06-21T05:04:08.224Z,24.02
2018-06-21T05:06:38.614Z,24.97
2018-06-21T05:09:11.311Z,26.18
2018-06-21T05:11:41.622Z,27.28
2018-06-21T05:14:12.255Z,27.99
2018-06-21T05:16:42.796Z,28.85
2018-06-21T05:19:13.299Z,30.01
2018-06-21T05:21:43.661Z,30.98
2018-06-21T05:24:14.125Z,31.17
2018-06-21T05:26:44.518Z,31.98
2018-06-21T05:29:14.878Z,32.20
2018-06-21T05:31:45.270Z,31.97
2018-06-21T05:34:15.570Z,32.48
2018-06-21T05:36:45.915Z,32.96
2018-06-21T05:39:16.732Z,32.62
2018-06-21T05:41:46.694Z,32.05
2018-06-21T05:44:16.806Z,31.86
2018-06-21T05:46:47.062Z,32.53
2018-06-21T05:49:17.404Z,33.72
2018-06-21T05:51:48.003Z,35.14
2018-06-21T05:54:18.326Z,36.19
2018-06-21T05:56:48.618Z,36.64
2018-06-21T05:59:18.950Z,36.99
2018-06-21T06:01:49.258Z,38.55
2018-06-21T06:04:19.346Z,40.27
2018-06-21T06:06:49.834Z,40.30
2018-06-21T06:09:19.851Z,40.23
2018-06-21T06:11:49.770Z,40.81
2018-06-21T06:14:19.644Z,41.98
2018-06-21T06:16:49.815Z,42.83
2018-06-21T06:19:19.529Z,42.93
2018-06-21T06:21:50.170Z,41.97
2018-06-21T06:24:19.927Z,41.77
2018-06-21T06:26:49.950Z,42.48
2018-06-21T06:29:19.991Z,44.43
2018-06-21T06:31:49.998Z,45.72
2018-06-21T06:34:19.978Z,47.09
2018-06-21T06:36:49.982Z,46.62
2018-06-21T06:39:21.030Z,47.33
2018-06-21T06:41:51.818Z,47.96
2018-06-21T06:44:21.866Z,48.33
2018-06-21T06:46:51.870Z,48.62
2018-06-21T06:49:21.908Z,49.21
2018-06-21T06:51:51.929Z,48.84
2018-06-21T06:54:22.266Z,49.29
2018-06-21T06:56:51.990Z,49.77
2018-06-21T06:59:21.956Z,50.70
2018-06-21T07:01:51.929Z,51.53
2018-06-21T07:04:22.296Z,51.68
2018-06-21T07:06:52.522Z,51.44
2018-06-21T07:09:22.546Z,50.50
2018-06-21T07:11:52.306Z,50.44
2018-06-21T07:14:22.360Z,51.27
2018-06-21T07:16:52.602Z,51.54
2018-06-21T07:19:22.573Z,50.82
2018-06-21T07:21:52.264Z,50.10
2018-06-21T07:24:22.213Z,49.88
2018-06-21T07:26:52.186Z,50.36
2018-06-21T07:29:22.197Z,50.99
2018-06-21T07:31:52.163Z,51.20
2018-06-21T07:34:22.167Z,51.88
2018-06-21T07:36:52.150Z,50.74
2018-06-21T07:39:23.670Z,49.67
2018-06-21T07:41:53.667Z,48.88
2018-06-21T07:44:23.670Z,49.64
2018-06-21T07:46:53.662Z,51.10
2018-06-21T07:49:23.854Z,51.81
2018-06-21T07:51:53.843Z,51.99
2018-06-21T07:54:23.870Z,52.61
2018-06-21T07:56:53.815Z,52.67
2018-06-21T07:59:23.808Z,53.06
2018-06-21T08:01:53.786Z,52.71
2018-06-21T08:04:23.766Z,52.22
2018-06-21T08:06:53.766Z,51.25
2018-06-21T08:09:23.746Z,51.46
2018-06-21T08:11:53.738Z,51.58
2018-06-21T08:14:23.739Z,51.81
2018-06-21T08:16:53.426Z,51.68
2018-06-21T08:19:23.441Z,51.88
2018-06-21T08:21:53.430Z,51.85
2018-06-21T08:24:23.435Z,51.04
2018-06-21T08:26:53.362Z,50.24
2018-06-21T08:29:23.507Z,50.18
2018-06-21T08:31:53.790Z,51.46
2018-06-21T08:34:23.771Z,52.18
2018-06-21T08:36:53.797Z,52.02
2018-06-21T08:39:23.786Z,50.61
2018-06-21T08:41:53.854Z,51.23
2018-06-21T08:44:23.928Z,51.65
2018-06-21T08:46:53.918Z,51.81
2018-06-21T08:49:23.627Z,51.11
2018-06-21T08:51:53.328Z,51.04
2018-06-21T08:54:23.546Z,49.04
2018-06-21T08:56:53.524Z,47.57
2018-06-21T08:59:23.530Z,46.55
2018-06-21T09:01:53.503Z,46.29
2018-06-21T09:04:23.882Z,47.39
2018-06-21T09:06:53.887Z,47.45
2018-06-21T09:09:23.842Z,47.18
2018-06-21T09:11:54.158Z,46.34
2018-06-21T09:14:24.134Z,44.95
2018-06-21T09:16:54.140Z,44.51
2018-06-21T09:19:24.114Z,44.22
2018-06-21T09:21:54.105Z,43.75
2018-06-21T09:24:23.906Z,44.21
2018-06-21T09:26:54.115Z,42.76
2018-06-21T09:29:24.136Z,41.67
2018-06-21T09:31:54.418Z,42.73
2018-06-21T09:34:24.412Z,43.15
2018-06-21T09:36:54.465Z,43.37
2018-06-21T09:39:29.503Z,42.50
2018-06-21T09:42:04.974Z,41.77
2018-06-21T09:44:36.195Z,41.10
2018-06-21T09:47:11.710Z,40.55
2018-06-21T09:49:42.044Z,40.46
2018-06-21T09:52:12.322Z,40.14
2018-06-21T09:54:42.420Z,40.04
2018-06-21T09:57:12.814Z,40.06
2018-06-21T09:59:43.127Z,39.81
2018-06-21T10:02:13.554Z,39.34
2018-06-21T10:04:43.632Z,38.78
2018-06-21T10:07:13.707Z,38.04
2018-06-21T10:09:44.102Z,37.84
2018-06-21T10:12:14.418Z,37.77
2018-06-21T10:14:44.774Z,37.63
2018-06-21T10:17:15.449Z,37.64
2018-06-21T10:19:45.814Z,37.59
2018-06-21T10:22:15.971Z,37.59
2018-06-21T10:24:45.978Z,37.21
2018-06-21T10:27:16.281Z,36.70
2018-06-21T10:29:46.630Z,36.10
2018-06-21T10:32:16.934Z,35.80
2018-06-21T10:34:47.212Z,35.67
2018-06-21T10:37:17.643Z,35.86
2018-06-21T10:39:47.973Z,35.94
2018-06-21T10:42:18.354Z,35.95
2018-06-21T10:44:48.739Z,35.76
2018-06-21T10:47:19.060Z,35.52
2018-06-21T10:49:49.029Z,35.55
2018-06-21T10:52:19.390Z,35.69
2018-06-21T10:54:49.688Z,35.55
2018-06-21T10:57:19.950Z,35.62
2018-06-21T10:59:50.240Z,35.51
2018-06-21T11:02:20.487Z,35.43
2018-06-21T11:04:50.795Z,35.43
2018-06-21T11:07:21.070Z,35.26
2018-06-21T11:09:51.366Z,35.03
2018-06-21T11:12:21.624Z,34.74
2018-06-21T11:14:52.016Z,34.51
2018-06-21T11:17:22.392Z,34.48
2018-06-21T11:19:52.730Z,34.68
2018-06-21T11:22:23.037Z,34.90
2018-06-21T11:24:53.376Z,35.06
2018-06-21T11:27:24.136Z,35.07
2018-06-21T11:29:54.417Z,35.10
2018-06-21T11:32:24.923Z,35.11
2018-06-21T11:34:55.211Z,35.13
2018-06-21T11:37:25.458Z,35.24
2018-06-21T11:39:55.856Z,35.35
2018-06-21T11:42:26.113Z,35.38
2018-06-21T11:44:56.510Z,35.40
2018-06-21T11:47:26.835Z,35.10
2018-06-21T11:49:57.346Z,34.59
2018-06-21T11:52:27.598Z,34.46
2018-06-21T11:54:57.861Z,34.64
2018-06-21T11:57:28.134Z,34.60
2018-06-21T11:59:58.410Z,34.60
2018-06-21T12:02:28.810Z,34.69
2018-06-21T12:04:59.066Z,34.69
2018-06-21T12:07:29.070Z,34.77
2018-06-21T12:09:59.037Z,34.52
2018-06-21T12:12:29.304Z,34.28
2018-06-21T12:14:59.582Z,34.29
2018-06-21T12:17:29.910Z,34.28
2018-06-21T12:20:00.198Z,34.47
2018-06-21T12:22:30.191Z,34.59
2018-06-21T12:25:00.534Z,34.61
2018-06-21T12:27:30.526Z,34.84
2018-06-21T12:30:00.814Z,35.05
2018-06-21T12:32:31.066Z,34.89
2018-06-21T12:35:01.369Z,34.33
2018-06-21T12:37:31.859Z,34.28
2018-06-21T12:40:02.132Z,34.34
2018-06-21T12:42:32.447Z,34.44
2018-06-21T12:45:02.855Z,34.57
2018-06-21T12:47:33.210Z,34.58
2018-06-21T12:50:03.666Z,34.54
2018-06-21T12:52:33.701Z,34.55
2018-06-21T12:55:04.155Z,34.60
2018-06-21T12:57:34.462Z,34.63
2018-06-21T13:00:04.880Z,34.67
2018-06-21T13:02:34.962Z,34.60
2018-06-21T13:05:05.225Z,34.59
2018-06-21T13:07:35.554Z,34.52
2018-06-21T13:10:17.075Z,34.45
2018-06-21T13:13:08.699Z,34.35
2018-06-21T13:15:39.046Z,34.19
2018-06-21T13:18:09.319Z,34.07
2018-06-21T13:20:39.633Z,34.01
2018-06-21T13:23:09.911Z,33.87
2018-06-21T13:25:40.296Z,33.79
2018-06-21T13:28:10.647Z,33.86
2018-06-21T13:30:40.661Z,33.76
2018-06-21T13:33:10.938Z,33.66
2018-06-21T13:35:41.201Z,33.70
2018-06-21T13:38:11.494Z,33.83
2018-06-21T13:40:41.761Z,33.83
2018-06-21T13:43:12.159Z,33.85
2018-06-21T13:45:42.522Z,33.77
2018-06-21T13:48:12.534Z,33.60
2018-06-21T13:50:42.790Z,33.45
2018-06-21T13:53:13.928Z,33.41
2018-06-21T13:55:44.262Z,33.18
2018-06-21T13:58:14.538Z,33.17
2018-06-21T14:00:44.850Z,33.24
2018-06-21T14:03:15.139Z,33.34
2018-06-21T14:05:45.405Z,33.46
2018-06-21T14:08:15.823Z,33.50
2018-06-21T14:10:46.236Z,33.42
2018-06-21T14:13:16.540Z,33.10
2018-06-21T14:15:46.559Z,32.38
2018-06-21T14:18:17.289Z,31.58
2018-06-21T14:20:48.236Z,30.96
2018-06-21T14:23:18.515Z,30.32
2018-06-21T14:25:48.541Z,29.65
2018-06-21T14:28:18.790Z,28.86
2018-06-21T14:30:49.134Z,27.87
2018-06-21T14:33:19.490Z,26.96
2018-06-21T14:35:49.995Z,26.04
2018-06-21T14:38:20.460Z,25.23
2018-06-21T14:40:50.777Z,24.67
2018-06-21T14:43:21.118Z,24.14
2018-06-21T14:45:51.371Z,23.78
2018-06-21T14:48:21.692Z,23.52
2018-06-21T14:50:52.184Z,23.45
2018-06-21T14:53:22.179Z,23.34
2018-06-21T14:55:52.495Z,23.15
2018-06-21T14:58:22.226Z,22.97
2018-06-21T15:00:52.135Z,23.11
2018-06-21T15:03:21.878Z,23.21
2018-06-21T15:05:51.558Z,23.32
2018-06-21T15:08:21.912Z,23.32
2018-06-21T15:10:52.175Z,23.30
2018-06-21T15:13:21.592Z,23.42
2018-06-21T15:15:51.375Z,23.59
2018-06-21T15:18:21.067Z,23.62
2018-06-21T15:20:51.371Z,23.51
2018-06-21T15:23:21.054Z,23.45
2018-06-21T15:25:51.350Z,23.31
2018-06-21T15:28:21.623Z,23.37
2018-06-21T15:30:51.379Z,23.44
2018-06-21T15:33:21.101Z,23.52
2018-06-21T15:35:50.511Z,23.57
2018-06-21T15:38:20.493Z,23.51
2018-06-21T15:40:50.554Z,23.42
2018-06-21T15:43:20.250Z,23.29
2018-06-21T15:45:49.962Z,23.02
2018-06-21T15:48:19.936Z,22.67
2018-06-21T15:50:49.659Z,22.32
2018-06-21T15:53:19.431Z,22.05
2018-06-21T15:55:49.122Z,21.82
2018-06-21T15:58:19.370Z,21.59
2018-06-21T16:00:49.414Z,21.44
2018-06-21T16:03:19.113Z,21.38
2018-06-21T16:05:48.830Z,21.34
2018-06-21T16:08:18.509Z,21.29
2018-06-21T16:10:48.208Z,21.28
2018-06-21T16:13:18.453Z,21.30
2018-06-21T16:15:48.790Z,21.33
2018-06-21T16:18:18.646Z,21.48
2018-06-21T16:20:48.346Z,21.69
2018-06-21T16:23:18.018Z,21.80
2018-06-21T16:25:47.701Z,21.84
2018-06-21T16:28:17.420Z,21.75
2018-06-21T16:30:47.326Z,21.65
2018-06-21T16:33:17.017Z,21.62
2018-06-21T16:35:46.694Z,21.64
2018-06-21T16:38:16.354Z,21.60
2018-06-21T16:40:46.085Z,21.53
2018-06-21T16:43:15.504Z,21.39
2018-06-21T16:45:45.213Z,21.24
2018-06-21T16:48:14.879Z,21.08
2018-06-21T16:50:44.547Z,21.00
2018-06-21T16:53:14.292Z,20.91
2018-06-21T16:55:44.347Z,20.85
2018-06-21T16:58:14.053Z,20.79
2018-06-21T17:00:44.156Z,20.78
2018-06-21T17:03:13.847Z,20.82
2018-06-21T17:05:43.602Z,20.78
2018-06-21T17:08:13.294Z,20.72
2018-06-21T17:10:42.697Z,20.67
2018-06-21T17:13:12.391Z,20.56
2018-06-21T17:15:42.059Z,20.53
2018-06-21T17:18:11.813Z,20.47
2018-06-21T17:20:41.502Z,20.41
2018-06-21T17:23:11.210Z,20.36
2018-06-21T17:25:40.898Z,20.30
2018-06-21T17:28:10.569Z,20.30
2018-06-21T17:30:40.442Z,20.26
2018-06-21T17:33:10.115Z,20.19
2018-06-21T17:35:39.848Z,20.09
2018-06-21T17:38:09.534Z,19.99
2018-06-21T17:40:38.932Z,19.87
2018-06-21T17:43:08.646Z,19.73
2018-06-21T17:45:38.407Z,19.64
2018-06-21T17:48:08.242Z,19.60
2018-06-21T17:50:37.950Z,19.59
2018-06-21T17:53:07.643Z,19.52
2018-06-21T17:55:37.354Z,19.46
2018-06-21T17:58:07.094Z,19.44
2018-06-21T18:00:36.987Z,19.42
2018-06-21T18:03:06.666Z,19.37
2018-06-21T18:05:36.342Z,19.22
2018-06-21T18:08:06.094Z,19.10
2018-06-21T18:10:35.808Z,19.00
2018-06-21T18:13:05.530Z,18.93
2018-06-21T18:15:35.223Z,18.84
2018-06-21T18:18:04.922Z,18.77
2018-06-21T18:20:34.631Z,18.67
2018-06-21T18:23:04.318Z,18.67
2018-06-21T18:25:34.082Z,18.61
2018-06-21T18:28:03.816Z,18.55
2018-06-21T18:30:33.487Z,18.46
2018-06-21T18:33:03.219Z,18.38
2018-06-21T18:35:33.130Z,18.35
2018-06-21T18:38:02.693Z,18.28
2018-06-21T18:40:32.412Z,18.19
2018-06-21T18:43:02.162Z,18.09
2018-06-21T18:45:31.919Z,18.04
2018-06-21T18:48:01.649Z,17.98
2018-06-21T18:50:31.362Z,17.81
2018-06-21T18:53:01.114Z,17.80
2018-06-21T18:55:30.818Z,17.74
2018-06-21T18:58:00.539Z,17.66
2018-06-21T19:00:30.232Z,17.67
2018-06-21T19:02:59.928Z,17.66
2018-06-21T19:05:29.606Z,17.62
2018-06-21T19:08:04.608Z,17.56
2018-06-21T19:10:39.366Z,17.48
2018-06-21T19:13:08.978Z,17.42
2018-06-21T19:15:38.881Z,17.35
2018-06-21T19:18:08.559Z,17.31
2018-06-21T19:20:38.478Z,17.27
2018-06-21T19:23:08.434Z,17.20
2018-06-21T19:25:38.208Z,17.17
2018-06-21T19:28:08.107Z,17.09
2018-06-21T19:30:38.266Z,16.99
2018-06-21T19:33:08.342Z,16.91
2018-06-21T19:35:38.054Z,16.78
2018-06-21T19:38:07.815Z,16.68
2018-06-21T19:40:37.598Z,16.62
2018-06-21T19:43:07.319Z,16.47
2018-06-21T19:45:37.249Z,16.41
2018-06-21T19:48:06.929Z,16.36
2018-06-21T19:50:36.657Z,16.36
2018-06-21T19:53:06.342Z,16.31
2018-06-21T19:55:35.739Z,16.20
2018-06-21T19:58:05.221Z,16.19
2018-06-21T20:00:34.920Z,16.10
2018-06-21T20:03:04.376Z,15.97
2018-06-21T20:05:34.051Z,15.83
2018-06-21T20:08:03.758Z,15.68
2018-06-21T20:10:33.207Z,15.58
2018-06-21T20:13:02.874Z,15.61
2018-06-21T20:15:43.983Z,15.46
2018-06-21T20:18:13.392Z,15.41
2018-06-21T20:20:42.802Z,15.37
2018-06-21T20:23:12.490Z,15.26
2018-06-21T20:25:42.166Z,15.16
2018-06-21T20:28:11.761Z,15.05
2018-06-21T20:30:41.646Z,14.88
2018-06-21T20:33:11.318Z,14.75
2018-06-21T20:35:41.082Z,14.69
2018-06-21T20:38:10.777Z,14.54
2018-06-21T20:40:40.750Z,14.43
2018-06-21T20:43:10.150Z,14.39
2018-06-21T20:45:39.818Z,14.45
2018-06-21T20:48:09.536Z,14.33
2018-06-21T20:50:39.366Z,14.28
2018-06-21T20:53:08.806Z,14.05
2018-06-21T20:55:38.530Z,13.93
2018-06-21T20:58:08.015Z,13.84
2018-06-21T21:00:37.695Z,13.65
2018-06-21T21:03:07.083Z,13.59
2018-06-21T21:05:37.162Z,13.51
2018-06-21T21:08:06.851Z,13.46
2018-06-21T21:10:36.551Z,13.34
2018-06-21T21:13:07.008Z,13.22
2018-06-21T21:15:37.549Z,13.10
2018-06-21T21:18:08.396Z,12.96
2018-06-21T21:20:38.122Z,12.86
2018-06-21T21:23:07.580Z,12.75
2018-06-21T21:25:37.193Z,12.68
2018-06-21T21:28:06.610Z,12.70
2018-06-21T21:30:36.295Z,12.68
2018-06-21T21:33:06.061Z,12.56
2018-06-21T21:35:35.726Z,12.47
2018-06-21T21:38:05.486Z,12.39
2018-06-21T21:40:35.175Z,12.32
2018-06-21T21:43:04.878Z,12.26
2018-06-21T21:45:34.613Z,12.21
2018-06-21T21:48:04.311Z,12.21
2018-06-21T21:50:33.968Z,12.25
2018-06-21T21:53:03.394Z,12.38
2018-06-21T21:55:32.788Z,12.46
2018-06-21T21:58:02.494Z,12.60
2018-06-21T22:00:49.075Z,12.47
2018-06-21T22:03:18.519Z,12.29
2018-06-21T22:05:48.216Z,12.34
2018-06-21T22:08:17.726Z,12.30
2018-06-21T22:10:48.136Z,12.31
2018-06-21T22:13:17.915Z,12.37
2018-06-21T22:15:47.580Z,12.42
2018-06-21T22:18:16.991Z,12.49
2018-06-21T22:20:46.396Z,12.66
2018-06-21T22:23:16.070Z,12.67
2018-06-21T22:25:45.772Z,12.79
2018-06-21T22:28:15.493Z,12.95
2018-06-21T22:30:45.203Z,12.87
2018-06-21T22:33:14.614Z,12.78
2018-06-21T22:35:44.303Z,12.84
2018-06-21T22:38:13.687Z,12.93
2018-06-21T22:40:43.138Z,12.85
2018-06-21T22:43:12.856Z,12.83
2018-06-21T22:45:42.308Z,12.82
2018-06-21T22:48:11.710Z,12.79
2018-06-21T22:50:41.407Z,12.78
2018-06-21T22:53:11.415Z,12.75
2018-06-21T22:55:41.166Z,12.69
2018-06-21T22:58:11.011Z,12.67
2018-06-21T23:00:40.910Z,12.69
2018-06-21T23:03:10.318Z,12.71
2018-06-21T23:05:39.758Z,12.83
2018-06-21T23:08:09.156Z,13.09
2018-06-21T23:10:38.560Z,13.10
2018-06-21T23:13:08.401Z,13.17
2018-06-21T23:15:37.830Z,13.01
2018-06-21T23:18:07.534Z,13.01
2018-06-21T23:20:36.946Z,13.00
2018-06-21T23:23:06.642Z,13.03
2018-06-21T23:25:36.318Z,13.03
2018-06-21T23:28:06.003Z,12.87
2018-06-21T23:30:35.718Z,12.76
2018-06-21T23:33:05.456Z,12.66
2018-06-21T23:35:35.146Z,12.61
2018-06-21T23:38:04.802Z,12.57
2018-06-21T23:40:34.496Z,12.55
2018-06-21T23:43:04.197Z,12.64
2018-06-21T23:45:34.030Z,12.74
2018-06-21T23:48:03.718Z,12.85
2018-06-21T23:50:33.114Z,13.04
2018-06-21T23:53:02.774Z,12.97
2018-06-21T23:55:32.486Z,12.93
2018-06-21T23:58:02.163Z,12.90
